Погода Кушевкана неделю

Витебская область, Белоруссия

23 - 29 мая
  • 23мая
    Сегодня
    +10°
    +24°
    Практически безоблачно
    ВремяПогодаТемператураВлажностьДавлениеВетер, м/сВероятность осадков
    00:00Небольшая облачность+16°C91 %750 мм2.2 м/с2 %
    03:00Ясно и безоблачно+14°C94 %750 мм1.9 м/с2 %
    06:00Ясно и безоблачно+13°C93 %751 мм2.1 м/с2 %
    09:00Ясно и безоблачно+18°C74 %752 мм3.3 м/с2 %
    12:00Ясно и безоблачно+22°C56 %752 мм4.1 м/с2 %
    15:00Практически безоблачно+23°C50 %752 мм4.9 м/с2 %
    18:00Ясно и безоблачно+23°C45 %752 мм4.2 м/с3 %
    21:00Ясно и безоблачно+19°C55 %753 мм3.2 м/с2 %
  • 24мая
    Пятница
    +9°
    +21°
    Небольшая облачность
    ВремяПогодаТемператураВлажностьДавлениеВетер, м/сВероятность осадков
    00:00Ясно и безоблачно+15°C55 %754 мм2.9 м/с2 %
    03:00Ясно и безоблачно+12°C60 %755 мм2.5 м/с2 %
    06:00Ясно и безоблачно+11°C63 %756 мм2.1 м/с2 %
    09:00Ясно и безоблачно+15°C54 %757 мм3.7 м/с2 %
    12:00Ясно и безоблачно+18°C44 %757 мм4.0 м/с2 %
    15:00Небольшая облачность+21°C40 %756 мм4.7 м/с2 %
    18:00Небольшая облачность+21°C39 %756 мм3.7 м/с2 %
    21:00Ясно и безоблачно+17°C53 %755 мм2.7 м/с2 %
  • 25мая
    Суббота
    +9°
    +23°
    Ясно и безоблачно
    ВремяПогодаТемператураВлажностьДавлениеВетер, м/сВероятность осадков
    00:00Ясно и безоблачно+12°C59 %756 мм2.2 м/с2 %
    03:00Ясно и безоблачно+10°C66 %756 мм2.1 м/с2 %
    06:00Ясно и безоблачно+10°C69 %756 мм1.7 м/с2 %
    09:00Ясно и безоблачно+16°C56 %756 мм2.8 м/с2 %
    12:00Ясно и безоблачно+20°C47 %756 мм3.0 м/с2 %
    15:00Ясно и безоблачно+23°C41 %755 мм3.7 м/с2 %
    18:00Ясно и безоблачно+23°C41 %754 мм2.9 м/с2 %
    21:00Ясно и безоблачно+18°C66 %753 мм2.1 м/с2 %
  • 26мая
    Воскресенье
    +13°
    +25°
    Ясно и безоблачно
    ВремяПогодаТемператураВлажностьДавлениеВетер, м/сВероятность осадков
    00:00Ясно и безоблачно+13°C73 %754 мм1.4 м/с2 %
    03:00Ясно и безоблачно+10°C86 %753 мм1.4 м/с2 %
    06:00Практически безоблачно+11°C83 %754 мм0.6 м/с2 %
    09:00Облачно с прояснениями+18°C58 %754 мм1.1 м/с2 %
    12:00Небольшая облачность+21°C41 %754 мм1.4 м/с2 %
    15:00Ясно и безоблачно+23°C40 %754 мм1.8 м/с2 %
    18:00Ясно и безоблачно+24°C41 %753 мм1.7 м/с2 %
    21:00Ясно и безоблачно+20°C63 %753 мм1.4 м/с2 %
  • 27мая
    Понедельник
    +13°
    +26°
    Пасмурно, сплошная облачность
    ВремяПогодаТемператураВлажностьДавлениеВетер, м/сВероятность осадков
    00:00Ясно и безоблачно+15°C72 %753 мм1.3 м/с2 %
    03:00Ясно и безоблачно+15°C70 %753 мм1.4 м/с2 %
    06:00Ясно и безоблачно+14°C79 %754 мм0.7 м/с2 %
    09:00Ясно и безоблачно+20°C71 %754 мм1.8 м/с2 %
    12:00Ясно и безоблачно+24°C52 %754 мм2.0 м/с9 %
    15:00Пасмурно, сплошная облачность+25°C49 %754 мм2.4 м/с33 %
    18:00Небольшая облачность и лёгкий дождик+25°C56 %753 мм2.0 м/с34 %
    21:00Практически безоблачно+21°C70 %754 мм1.8 м/с12 %
Мы используем cookies
Соглашаюсь